Time;durP1;ratioP1;P1;durP2;ratioP2;P2;SDS_P1;SDS_P2;PMS_P1;PMS_P2;Temp;Humidity;BMP_temperature;BMP_pressure;BME280_temperature;BME280_humidity;BME280_pressure;Samples;Min_cycle;Max_cycle;Signal;HPM_P1;HPM_P2
2021/12/12 00:00:10;;;;;;;40.22;25.42;;;25.40;99.90;;;;;;5017131;28;20311;-63
2021/12/12 00:05:19;;;;;;;47.50;27.45;;;25.40;99.90;;;;;;5016665;28;20014;-65
2021/12/12 00:07:46;;;;;;;35.83;25.23;;;25.30;99.90;;;;;;5017814;28;20041;-64
2021/12/12 00:10:20;;;;;;;39.65;25.83;;;25.40;99.90;;;;;;5016662;28;20037;-65
2021/12/12 00:12:52;;;;;;;45.15;25.40;;;25.50;99.90;;;;;;5033513;28;20030;-65
2021/12/12 00:15:19;;;;;;;;;;;25.50;99.90;;;;;;5036537;28;20041;-65
2021/12/12 00:17:47;;;;;;;37.67;23.35;;;25.40;99.90;;;;;;5035806;28;20380;-65
2021/12/12 00:20:18;;;;;;;42.50;24.95;;;25.40;99.90;;;;;;5035821;28;20079;-65
2021/12/12 00:22:45;;;;;;;38.00;24.63;;;25.50;99.90;;;;;;5036090;28;20112;-66
2021/12/12 00:25:12;;;;;;;38.15;24.05;;;25.50;99.90;;;;;;5036116;28;20051;-66
2021/12/12 00:27:39;;;;;;;35.00;25.20;;;25.50;99.90;;;;;;5035439;28;20083;-65
2021/12/12 00:30:09;;;;;;;37.75;23.25;;;25.50;99.90;;;;;;5035332;28;20033;-65
2021/12/12 00:32:37;;;;;;;31.05;22.10;;;25.40;99.90;;;;;;5035279;28;20371;-66
2021/12/12 00:35:08;;;;;;;39.45;22.30;;;25.40;99.90;;;;;;5035133;28;20040;-66
2021/12/12 00:37:36;;;;;;;46.25;27.63;;;25.40;99.90;;;;;;5035150;28;20443;-66
2021/12/12 00:40:16;;;;;;;41.33;25.40;;;25.40;99.90;;;;;;5034609;28;20482;-64
2021/12/12 00:42:44;;;;;;;43.58;23.30;;;25.50;99.90;;;;;;5035023;28;20084;-66
2021/12/12 00:45:15;;;;;;;37.53;22.70;;;25.50;99.90;;;;;;5034466;28;20045;-69
2021/12/12 00:47:44;;;;;;;28.55;20.40;;;25.60;99.90;;;;;;5028349;28;20029;-68
2021/12/12 00:50:19;;;;;;;27.80;16.98;;;25.60;99.90;;;;;;5034221;28;20065;-67
2021/12/12 00:52:48;;;;;;;28.13;16.70;;;25.70;99.90;;;;;;5032474;28;20486;-67
2021/12/12 00:55:16;;;;;;;24.73;18.15;;;25.80;99.90;;;;;;5032603;28;20026;-66
2021/12/12 00:57:49;;;;;;;27.83;16.27;;;25.90;99.90;;;;;;5032081;28;20026;-66
2021/12/12 01:00:19;;;;;;;21.67;14.95;;;25.80;99.90;;;;;;5032909;28;20585;-66
2021/12/12 01:02:48;;;;;;;24.60;16.73;;;25.90;99.90;;;;;;5033943;28;20053;-67
2021/12/12 01:05:14;;;;;;;26.48;16.38;;;25.90;99.90;;;;;;5034221;28;20021;-67
2021/12/12 01:07:46;;;;;;;33.63;16.45;;;26.00;99.90;;;;;;5033901;28;20556;-67
2021/12/12 01:10:30;;;;;;;29.80;18.77;;;26.10;99.90;;;;;;5034132;28;20036;-66
2021/12/12 01:12:58;;;;;;;30.48;16.05;;;26.10;99.90;;;;;;5034344;28;20034;-66
2021/12/12 01:15:39;;;;;;;21.92;14.75;;;26.20;99.90;;;;;;5034385;28;20026;-66
2021/12/12 01:18:18;;;;;;;29.33;16.35;;;26.30;99.90;;;;;;5033903;28;20025;-68
2021/12/12 01:20:54;;;;;;;24.85;15.10;;;26.40;99.90;;;;;;5034145;28;20116;-66
2021/12/12 01:23:24;;;;;;;19.30;13.93;;;26.50;99.90;;;;;;5034077;28;20100;-66
2021/12/12 01:25:52;;;;;;;28.35;15.85;;;26.40;99.90;;;;;;5033736;28;20386;-65
2021/12/12 01:28:24;;;;;;;20.42;14.20;;;26.50;99.90;;;;;;5013960;28;20034;-65
2021/12/12 01:30:54;;;;;;;33.28;18.77;;;26.50;99.90;;;;;;5024195;28;20029;-67
2021/12/12 01:33:32;;;;;;;44.40;28.75;;;26.60;99.90;;;;;;5033695;28;20029;-66
2021/12/12 01:36:06;;;;;;;211.45;163.10;;;26.60;99.90;;;;;;5033691;28;20466;-64
2021/12/12 01:41:14;;;;;;;32.55;16.73;;;26.80;99.90;;;;;;5033462;28;20064;-65
2021/12/12 01:43:47;;;;;;;32.65;18.52;;;26.90;99.90;;;;;;5033650;28;20041;-67
2021/12/12 01:46:21;;;;;;;45.72;26.17;;;26.90;99.90;;;;;;5033562;28;20022;-65
2021/12/12 01:48:58;;;;;;;27.65;16.85;;;26.90;99.90;;;;;;5033471;28;20041;-66
2021/12/12 01:51:26;;;;;;;28.95;16.60;;;27.00;99.90;;;;;;5033815;28;20025;-65
2021/12/12 01:53:55;;;;;;;32.00;22.35;;;27.00;99.90;;;;;;5033620;28;20025;-66
2021/12/12 01:56:28;;;;;;;31.88;23.80;;;27.10;99.90;;;;;;5033243;28;20040;-66
2021/12/12 01:59:01;;;;;;;34.45;23.67;;;27.10;99.90;;;;;;5033283;28;20396;-65
2021/12/12 02:01:32;;;;;;;35.97;24.13;;;27.10;99.90;;;;;;5033355;28;20033;-66
2021/12/12 02:04:05;;;;;;;47.43;27.97;;;27.10;99.90;;;;;;5033713;28;20024;-66
2021/12/12 02:06:33;;;;;;;75.00;56.90;;;27.10;99.90;;;;;;5033229;28;20115;-66
2021/12/12 02:09:00;;;;;;;53.75;36.63;;;27.20;99.90;;;;;;5032417;28;20393;-66
2021/12/12 02:11:33;;;;;;;35.28;26.38;;;27.30;99.90;;;;;;5033346;28;20052;-65
2021/12/12 02:14:09;;;;;;;43.88;28.58;;;27.30;99.90;;;;;;5029089;28;20033;-65
2021/12/12 02:16:39;;;;;;;110.10;86.43;;;27.40;99.90;;;;;;5027407;28;20026;-68
2021/12/12 02:19:07;;;;;;;36.78;29.67;;;27.40;99.90;;;;;;5021872;28;20076;-67
2021/12/12 02:37:32;;;;;;;36.17;27.60;;;27.60;99.90;;;;;;5024476;28;20036;-66
2021/12/12 02:40:01;;;;;;;35.58;27.45;;;27.60;99.90;;;;;;5026364;28;20080;-66
2021/12/12 02:42:28;;;;;;;45.40;25.58;;;27.60;99.90;;;;;;5028942;28;20522;-64
2021/12/12 02:44:58;;;;;;;35.45;21.25;;;27.70;99.90;;;;;;5025033;28;20395;-64
2021/12/12 02:47:33;;;;;;;31.05;21.80;;;27.70;99.90;;;;;;5024586;28;20022;-64
2021/12/12 02:50:13;;;;;;;29.23;21.88;;;27.70;99.90;;;;;;5025567;28;20135;-65
2021/12/12 02:52:46;;;;;;;32.08;23.13;;;27.70;99.90;;;;;;5028972;28;20025;-64
2021/12/12 02:55:22;;;;;;;33.95;23.98;;;27.80;99.90;;;;;;5028369;28;20033;-65
2021/12/12 02:57:51;;;;;;;39.22;24.35;;;27.80;99.90;;;;;;5028623;28;20478;-65
2021/12/12 03:00:21;;;;;;;42.67;30.95;;;27.80;99.90;;;;;;5029427;28;20040;-65
2021/12/12 03:02:56;;;;;;;34.80;27.13;;;27.90;99.90;;;;;;5027823;28;20057;-64
2021/12/12 03:05:26;;;;;;;33.08;22.98;;;28.00;99.90;;;;;;5028574;28;20025;-64
2021/12/12 03:07:53;;;;;;;34.63;24.48;;;28.00;99.90;;;;;;5027519;28;20039;-65
2021/12/12 03:10:28;;;;;;;36.83;24.95;;;28.10;99.90;;;;;;5026818;28;20022;-65
2021/12/12 03:12:55;;;;;;;34.75;23.25;;;28.10;99.90;;;;;;5026195;28;20359;-64
2021/12/12 03:15:30;;;;;;;33.47;23.60;;;28.20;99.90;;;;;;5025567;28;20079;-63
2021/12/12 03:18:00;;;;;;;29.27;21.90;;;28.30;99.90;;;;;;5026269;28;20029;-65
2021/12/12 03:20:31;;;;;;;88.93;53.85;;;28.30;99.90;;;;;;5026911;28;20407;-65
2021/12/12 03:23:03;;;;;;;36.33;27.25;;;28.40;99.90;;;;;;5023415;28;20080;-65
2021/12/12 03:25:34;;;;;;;33.65;22.33;;;28.40;99.90;;;;;;5027345;28;20029;-65
2021/12/12 03:28:01;;;;;;;30.13;22.42;;;28.50;99.90;;;;;;5031033;28;20029;-65
2021/12/12 03:30:28;;;;;;;41.80;23.75;;;28.50;99.90;;;;;;5030505;28;20065;-65
2021/12/12 03:32:55;;;;;;;39.00;25.52;;;28.50;99.90;;;;;;5036210;28;20434;-65
2021/12/12 03:35:22;;;;;;;35.90;26.88;;;28.50;99.90;;;;;;5027871;28;20394;-65
2021/12/12 03:37:49;;;;;;;37.33;23.55;;;28.40;99.90;;;;;;5016745;28;20028;-65
2021/12/12 03:40:24;;;;;;;44.22;26.58;;;28.50;99.90;;;;;;5024645;28;20022;-65
2021/12/12 03:42:53;;;;;;;35.58;18.95;;;28.50;99.90;;;;;;5031849;28;20482;-65
2021/12/12 03:45:21;;;;;;;27.98;19.40;;;28.50;99.90;;;;;;5029583;28;20054;-66
2021/12/12 03:47:57;;;;;;;36.10;20.45;;;28.60;99.90;;;;;;5021100;28;20038;-65
2021/12/12 03:50:30;;;;;;;23.10;18.70;;;28.60;99.90;;;;;;5022560;28;20029;-65
2021/12/12 03:52:57;;;;;;;31.27;20.60;;;28.70;99.90;;;;;;5026708;28;20124;-65
2021/12/12 03:55:26;;;;;;;41.00;32.08;;;28.70;99.90;;;;;;5021320;28;20096;-63
2021/12/12 03:57:53;;;;;;;32.58;22.08;;;28.80;99.90;;;;;;5031221;28;20056;-62
2021/12/12 04:00:25;;;;;;;22.42;14.02;;;28.80;99.90;;;;;;5027121;28;20025;-64
2021/12/12 04:02:53;;;;;;;17.08;10.02;;;28.90;99.90;;;;;;5026904;28;20017;-64
2021/12/12 04:05:21;;;;;;;22.27;12.50;;;28.90;99.90;;;;;;5025219;28;20026;-64
2021/12/12 04:07:48;;;;;;;24.30;12.18;;;28.90;99.90;;;;;;5030384;28;20040;-64
2021/12/12 04:10:19;;;;;;;20.60;10.98;;;29.00;99.90;;;;;;5026487;28;20405;-64
2021/12/12 04:12:48;;;;;;;20.23;9.88;;;29.00;99.90;;;;;;5023718;28;20026;-64
2021/12/12 04:15:16;;;;;;;19.95;10.75;;;29.00;99.90;;;;;;5027108;28;20057;-65
2021/12/12 04:17:43;;;;;;;26.63;12.13;;;29.00;99.90;;;;;;5026626;28;20483;-64
2021/12/12 04:20:26;;;;;;;23.63;11.48;;;29.00;99.90;;;;;;5028257;28;20475;-64
2021/12/12 04:22:53;;;;;;;33.83;12.48;;;29.00;99.90;;;;;;5031240;28;20025;-64
2021/12/12 04:25:20;;;;;;;25.40;11.73;;;29.00;99.90;;;;;;5030457;28;20040;-63
2021/12/12 04:27:47;;;;;;;20.13;11.27;;;29.00;99.90;;;;;;5031278;28;20041;-64
2021/12/12 04:30:15;;;;;;;18.83;10.18;;;29.00;99.90;;;;;;5030362;28;20095;-65
2021/12/12 04:32:44;;;;;;;22.20;12.57;;;29.00;99.90;;;;;;5034866;28;20378;-65
2021/12/12 04:35:20;;;;;;;25.63;11.43;;;29.00;99.90;;;;;;5035101;28;20030;-65
2021/12/12 04:37:48;;;;;;;20.15;10.38;;;29.10;99.90;;;;;;5034633;28;20430;-65
2021/12/12 04:40:21;;;;;;;14.85;9.00;;;29.10;99.90;;;;;;5034765;28;20025;-66
2021/12/12 04:42:51;;;;;;;20.35;11.45;;;29.20;99.90;;;;;;5034354;28;20033;-66
2021/12/12 04:45:31;;;;;;;24.30;10.77;;;29.30;99.90;;;;;;5034258;28;20049;-66
2021/12/12 04:51:02;;;;;;;18.25;10.80;;;29.50;99.90;;;;;;5034357;28;20025;-63
2021/12/12 04:53:37;;;;;;;23.25;9.75;;;29.50;99.90;;;;;;5034821;28;20024;-66
2021/12/12 04:56:15;;;;;;;22.98;9.85;;;29.50;99.90;;;;;;5032999;28;20017;-64
2021/12/12 04:58:44;;;;;;;22.77;9.57;;;29.50;99.90;;;;;;5033298;28;20116;-64
2021/12/12 05:01:19;;;;;;;18.52;8.80;;;29.50;99.90;;;;;;5026024;28;20386;-64
2021/12/12 05:04:00;;;;;;;24.38;10.00;;;29.60;99.90;;;;;;5031967;28;20033;-65
2021/12/12 05:06:40;;;;;;;19.50;9.10;;;29.60;99.90;;;;;;5032390;28;20032;-64
2021/12/12 05:09:24;;;;;;;18.27;9.13;;;29.70;99.90;;;;;;5034332;28;20072;-66
2021/12/12 05:12:03;;;;;;;20.17;10.00;;;29.70;99.90;;;;;;5023338;28;20497;-64
2021/12/12 05:14:36;;;;;;;34.00;9.90;;;29.80;99.90;;;;;;5029904;28;20111;-64
2021/12/12 05:17:09;;;;;;;13.13;8.52;;;30.10;99.90;;;;;;5035819;28;20075;-64
2021/12/12 05:19:39;;;;;;;12.13;8.07;;;30.20;99.90;;;;;;5041675;28;20118;-65
2021/12/12 05:22:11;;;;;;;19.30;7.45;;;30.30;99.90;;;;;;5033875;28;20026;-64
2021/12/12 05:24:39;;;;;;;15.68;7.13;;;30.40;99.90;;;;;;5028934;28;20041;-65
2021/12/12 05:27:13;;;;;;;12.40;7.18;;;30.40;99.90;;;;;;5022219;28;20037;-64
2021/12/12 05:29:48;;;;;;;15.63;8.13;;;30.40;99.90;;;;;;5030372;28;20026;-65
2021/12/12 05:32:15;;;;;;;19.60;9.52;;;30.50;99.90;;;;;;5033088;28;20034;-64
2021/12/12 05:34:48;;;;;;;15.48;8.98;;;30.40;99.90;;;;;;5030935;28;20029;-64
2021/12/12 05:37:17;;;;;;;17.15;8.20;;;30.30;99.90;;;;;;5033940;28;20038;-64
2021/12/12 05:39:44;;;;;;;18.85;8.75;;;30.30;99.90;;;;;;5033832;28;20071;-65
2021/12/12 05:42:12;;;;;;;22.23;8.60;;;30.30;99.90;;;;;;5033227;28;20478;-65
2021/12/12 05:44:39;;;;;;;18.70;9.23;;;30.30;99.90;;;;;;5029921;28;20085;-66
2021/12/12 05:47:08;;;;;;;23.65;8.80;;;30.30;99.90;;;;;;5028189;28;20032;-65
2021/12/12 05:49:38;;;;;;;22.20;10.25;;;30.40;99.90;;;;;;5023087;28;20116;-66
2021/12/12 05:52:12;;;;;;;23.45;9.88;;;30.40;99.90;;;;;;5023982;28;20486;-66
2021/12/12 05:54:39;;;;;;;21.80;7.75;;;30.50;99.90;;;;;;5020863;28;20456;-67
2021/12/12 05:57:09;;;;;;;32.90;10.85;;;30.50;99.90;;;;;;5024683;28;20120;-65
2021/12/12 05:59:38;;;;;;;16.30;8.07;;;30.50;99.90;;;;;;5025668;28;20053;-66
2021/12/12 06:02:06;;;;;;;27.80;10.35;;;30.50;99.90;;;;;;5039845;22;20053;-65
2021/12/12 06:04:35;;;;;;;20.92;8.70;;;30.60;99.90;;;;;;5047681;28;20030;-66
2021/12/12 06:07:04;;;;;;;29.30;10.63;;;30.60;99.90;;;;;;5040261;28;20021;-65
2021/12/12 06:09:33;;;;;;;27.83;9.90;;;30.70;99.90;;;;;;5040923;28;20079;-65
2021/12/12 06:12:03;;;;;;;14.32;8.45;;;30.70;99.90;;;;;;5028531;28;20033;-66
2021/12/12 06:14:31;;;;;;;18.00;8.52;;;30.80;99.90;;;;;;5027749;28;20087;-66
2021/12/12 06:17:01;;;;;;;20.50;9.82;;;30.80;99.90;;;;;;5022211;28;20026;-65
2021/12/12 06:19:31;;;;;;;28.35;10.38;;;30.80;99.90;;;;;;5026086;28;20512;-65
2021/12/12 06:21:59;;;;;;;25.17;10.38;;;30.80;99.90;;;;;;5029067;28;20174;-64
2021/12/12 06:24:28;;;;;;;19.80;10.75;;;30.90;99.90;;;;;;5025142;28;20034;-64
2021/12/12 06:26:57;;;;;;;23.38;10.52;;;30.90;99.90;;;;;;5023633;28;20033;-64
2021/12/12 06:29:24;;;;;;;23.27;11.95;;;30.90;99.90;;;;;;5030344;28;20056;-66
2021/12/12 06:31:52;;;;;;;39.20;13.00;;;30.90;99.90;;;;;;5030223;28;20040;-66
2021/12/12 06:34:19;;;;;;;20.92;11.63;;;30.90;99.90;;;;;;5028417;28;20034;-64
2021/12/12 06:36:50;;;;;;;16.42;11.13;;;30.90;99.90;;;;;;5028361;28;20037;-65
2021/12/12 06:39:17;;;;;;;21.92;10.65;;;31.00;99.90;;;;;;5023285;28;20501;-64
2021/12/12 06:41:44;;;;;;;23.48;10.93;;;31.00;99.90;;;;;;5020124;28;20536;-64
2021/12/12 06:44:11;;;;;;;26.92;9.73;;;31.10;99.90;;;;;;5031082;28;20101;-64
2021/12/12 06:46:40;;;;;;;19.35;9.73;;;31.10;97.40;;;;;;5032126;28;20045;-64
2021/12/12 06:49:09;;;;;;;18.38;9.77;;;31.10;97.50;;;;;;5032782;28;20025;-64
2021/12/12 06:51:40;;;;;;;23.15;10.38;;;31.10;97.50;;;;;;5032919;28;20045;-65
2021/12/12 06:54:08;;;;;;;15.37;8.97;;;31.10;97.30;;;;;;5040120;28;20037;-65
2021/12/12 06:56:35;;;;;;;22.00;10.18;;;31.20;96.60;;;;;;5052747;28;20025;-64
2021/12/12 06:59:04;;;;;;;18.30;9.95;;;31.30;96.70;;;;;;5048888;28;20032;-65
2021/12/12 07:01:34;;;;;;;15.77;10.88;;;31.30;97.50;;;;;;5031714;28;20501;-65
2021/12/12 07:04:02;;;;;;;15.95;10.32;;;31.30;97.80;;;;;;5042682;28;20060;-65
2021/12/12 07:06:30;;;;;;;19.20;10.55;;;31.40;97.70;;;;;;5033864;28;20032;-66
2021/12/12 07:09:00;;;;;;;17.48;9.98;;;31.40;97.00;;;;;;5032718;28;20122;-65
2021/12/12 07:11:28;;;;;;;19.05;10.38;;;31.30;96.70;;;;;;5032681;28;20033;-65
2021/12/12 07:13:55;;;;;;;17.05;10.00;;;31.30;98.20;;;;;;5032363;28;20441;-65
2021/12/12 07:16:23;;;;;;;17.65;10.18;;;31.20;97.90;;;;;;5032830;28;20026;-65
2021/12/12 07:18:51;;;;;;;21.08;10.88;;;31.20;97.40;;;;;;5032767;28;20052;-66
2021/12/12 07:21:19;;;;;;;19.58;9.07;;;31.40;97.00;;;;;;5031926;28;20037;-65
2021/12/12 07:23:49;;;;;;;19.23;7.82;;;31.40;97.40;;;;;;5032603;28;20021;-64
2021/12/12 07:26:19;;;;;;;12.27;6.82;;;31.30;98.00;;;;;;5033870;28;20025;-65
2021/12/12 07:28:47;;;;;;;15.40;7.05;;;31.20;98.50;;;;;;5036432;28;20394;-65
2021/12/12 07:31:19;;;;;;;18.00;8.25;;;31.20;99.60;;;;;;5026930;28;20033;-66
2021/12/12 07:33:46;;;;;;;;;;;31.20;99.20;;;;;;5034825;28;20053;-66
2021/12/12 07:36:15;;;;;;;18.42;7.32;;;31.00;99.90;;;;;;5035770;28;19905;-66
2021/12/12 07:38:46;;;;;;;10.52;6.32;;;31.10;99.00;;;;;;5036075;28;20112;-64
2021/12/12 07:41:14;;;;;;;18.02;7.25;;;31.00;99.70;;;;;;5035553;28;20022;-64
2021/12/12 07:43:41;;;;;;;13.00;7.28;;;31.00;99.90;;;;;;5035926;28;20108;-67
2021/12/12 07:46:08;;;;;;;11.95;7.43;;;31.00;99.90;;;;;;5036028;28;20022;-66
2021/12/12 07:48:39;;;;;;;12.70;7.75;;;31.00;99.90;;;;;;5035877;28;20029;-66
2021/12/12 07:51:07;;;;;;;14.33;8.20;;;30.90;99.90;;;;;;5035634;28;20038;-67
2021/12/12 07:53:34;;;;;;;41.22;8.93;;;31.00;99.70;;;;;;5036207;28;20025;-67
2021/12/12 07:56:01;;;;;;;13.95;8.98;;;30.80;98.10;;;;;;5035494;28;20037;-66
2021/12/12 07:58:28;;;;;;;54.08;10.88;;;30.90;98.80;;;;;;5035747;28;20469;-64
2021/12/12 08:00:58;;;;;;;17.35;9.43;;;30.90;98.70;;;;;;5029794;28;20025;-65
2021/12/12 08:03:29;;;;;;;15.60;8.73;;;31.00;98.60;;;;;;5033821;28;20053;-65
2021/12/12 08:05:59;;;;;;;14.70;8.73;;;31.00;96.80;;;;;;5034157;28;20025;-65
2021/12/12 08:08:27;;;;;;;26.95;15.30;;;31.00;97.60;;;;;;5035401;28;20036;-65
2021/12/12 08:10:55;;;;;;;21.35;11.25;;;31.10;99.00;;;;;;5035514;28;20033;-66
2021/12/12 08:13:22;;;;;;;19.52;8.70;;;31.10;98.80;;;;;;5035227;28;20041;-65
2021/12/12 08:15:49;;;;;;;12.38;7.53;;;31.10;99.30;;;;;;5031005;28;20108;-65
2021/12/12 08:18:18;;;;;;;12.90;6.50;;;31.20;98.60;;;;;;5032153;28;20033;-66
2021/12/12 08:20:49;;;;;;;22.73;9.05;;;31.30;97.00;;;;;;5035451;28;20041;-65
2021/12/12 08:23:17;;;;;;;15.40;9.10;;;31.30;96.40;;;;;;5033285;28;20074;-65
2021/12/12 08:25:46;;;;;;;12.57;7.65;;;31.50;95.60;;;;;;5034813;28;20113;-65
2021/12/12 08:28:14;;;;;;;13.30;7.93;;;31.40;94.80;;;;;;5035272;28;20477;-66
2021/12/12 08:30:42;;;;;;;13.50;7.82;;;31.40;95.20;;;;;;5027674;28;20345;-66
2021/12/12 08:33:09;;;;;;;13.95;7.20;;;31.30;95.80;;;;;;5032897;28;20474;-65
2021/12/12 08:35:38;;;;;;;15.25;8.02;;;31.30;95.40;;;;;;5033950;28;20394;-66
2021/12/12 08:38:07;;;;;;;19.55;9.32;;;31.30;96.30;;;;;;5033894;28;20025;-65
2021/12/12 08:40:43;;;;;;;11.20;7.30;;;31.20;97.30;;;;;;5041293;28;20028;-65
2021/12/12 08:43:13;;;;;;;55.17;28.48;;;31.20;96.70;;;;;;5033284;28;20100;-64
2021/12/12 08:45:50;;;;;;;14.98;8.82;;;31.10;97.10;;;;;;5035075;28;20095;-65
2021/12/12 08:48:19;;;;;;;14.35;8.13;;;31.10;96.40;;;;;;5034849;28;20022;-66
2021/12/12 08:50:49;;;;;;;795.53;460.80;;;31.10;95.70;;;;;;5041220;28;20103;-65
2021/12/12 08:53:19;;;;;;;18.73;9.95;;;31.00;97.00;;;;;;5043960;28;20521;-64
2021/12/12 08:55:49;;;;;;;21.00;10.43;;;31.10;97.30;;;;;;5034488;28;20033;-64
2021/12/12 08:58:21;;;;;;;22.52;11.88;;;31.10;97.50;;;;;;5034513;28;20029;-65
2021/12/12 09:00:56;;;;;;;61.30;42.30;;;31.20;96.90;;;;;;5035808;28;20379;-64
2021/12/12 09:03:31;;;;;;;71.30;46.90;;;31.10;97.20;;;;;;5033732;28;20044;-62
2021/12/12 09:05:58;;;;;;;44.70;21.27;;;31.10;97.20;;;;;;5034805;28;20033;-63
2021/12/12 09:08:36;;;;;;;30.42;13.93;;;31.00;98.20;;;;;;5034213;28;20029;-62
2021/12/12 09:11:11;;;;;;;32.45;14.40;;;31.00;98.20;;;;;;5044949;28;20142;-64
2021/12/12 09:13:55;;;;;;;28.75;12.70;;;31.00;97.90;;;;;;5032315;28;20578;-63
2021/12/12 09:16:28;;;;;;;26.75;8.77;;;31.00;97.70;;;;;;5032771;28;20026;-64
2021/12/12 09:19:07;;;;;;;25.38;8.60;;;30.80;98.00;;;;;;5032975;28;20083;-64
2021/12/12 09:21:48;;;;;;;17.33;7.85;;;30.60;98.60;;;;;;5049316;28;20112;-64
2021/12/12 09:24:25;;;;;;;16.25;8.38;;;30.50;99.80;;;;;;5053957;28;20489;-63
2021/12/12 09:26:55;;;;;;;17.33;9.93;;;30.50;99.90;;;;;;5038844;28;20390;-64
2021/12/12 09:29:22;;;;;;;18.23;10.23;;;30.40;99.90;;;;;;5034433;28;20057;-63
2021/12/12 09:31:58;;;;;;;25.42;12.98;;;30.50;99.90;;;;;;5036800;28;20055;-63
2021/12/12 09:34:31;;;;;;;21.33;10.43;;;30.50;99.90;;;;;;5034026;28;20033;-63
2021/12/12 09:37:07;;;;;;;20.33;7.80;;;30.50;99.90;;;;;;5053187;22;20433;-64
2021/12/12 09:39:43;;;;;;;19.05;7.55;;;30.40;99.90;;;;;;5032731;28;20132;-64
2021/12/12 09:42:22;;;;;;;29.65;9.90;;;30.30;99.90;;;;;;5020104;28;20056;-63
2021/12/12 09:45:03;;;;;;;28.48;13.57;;;30.30;99.90;;;;;;5021002;28;20041;-62
2021/12/12 09:48:25;;;;;;;23.95;11.88;;;30.20;99.90;;;;;;5035413;28;20040;-64
2021/12/12 09:53:46;;;;;;;30.15;15.48;;;30.30;99.90;;;;;;5053139;28;20394;-62
2021/12/12 09:56:13;;;;;;;24.85;12.10;;;30.30;99.90;;;;;;5036432;28;20026;-63
2021/12/12 09:59:02;;;;;;;27.92;12.48;;;30.30;99.90;;;;;;5033573;28;20167;-62
2021/12/12 10:01:47;;;;;;;20.48;12.45;;;30.30;99.90;;;;;;5032120;28;20490;-63
2021/12/12 10:04:28;;;;;;;21.77;10.13;;;30.20;99.90;;;;;;5029028;28;20033;-64
2021/12/12 10:07:06;;;;;;;24.42;9.77;;;30.00;99.90;;;;;;5024772;28;20051;-63
2021/12/12 10:09:47;;;;;;;25.13;10.02;;;30.00;99.90;;;;;;5032212;28;20033;-63
2021/12/12 10:12:18;;;;;;;19.05;10.85;;;30.00;99.90;;;;;;5013850;28;20022;-62
2021/12/12 10:15:04;;;;;;;20.43;11.50;;;30.10;99.90;;;;;;5007992;28;20033;-64
2021/12/12 10:17:49;;;;;;;23.17;13.75;;;30.10;99.90;;;;;;5018714;28;20030;-63
2021/12/12 10:20:21;;;;;;;86.80;46.83;;;30.10;99.90;;;;;;5026790;28;20034;-63
2021/12/12 10:23:05;;;;;;;93.68;49.25;;;30.00;99.90;;;;;;5014042;28;20037;-62
2021/12/12 11:49:17;;;;;;;166.25;117.13;;;26.70;99.90;;;;;;5067213;27;20785;-64
2021/12/12 11:51:51;;;;;;;18.55;14.60;;;26.70;99.90;;;;;;5067695;28;20370;-63
2021/12/12 11:54:32;;;;;;;86.15;61.50;;;26.80;99.90;;;;;;5070041;28;20087;-65
2021/12/12 11:57:21;;;;;;;16.35;9.00;;;26.90;99.90;;;;;;5077699;28;20029;-64
2021/12/12 12:00:04;;;;;;;30.17;18.40;;;26.90;99.90;;;;;;5068915;28;20025;-65
2021/12/12 12:02:41;;;;;;;227.52;166.10;;;27.00;99.90;;;;;;5073650;28;20059;-63
2021/12/12 12:05:25;;;;;;;17.13;7.97;;;27.10;99.90;;;;;;5068642;28;20186;-63
2021/12/12 12:08:23;;;;;;;9.40;6.05;;;27.10;99.90;;;;;;5069261;28;20100;-62
2021/12/12 12:10:55;;;;;;;12.13;6.43;;;27.00;99.90;;;;;;5049341;28;20032;-63
2021/12/12 12:13:25;;;;;;;;;;;27.00;99.90;;;;;;5046762;28;20021;-63
2021/12/12 12:15:57;;;;;;;10.77;5.13;;;27.00;99.90;;;;;;5050224;28;19919;-64
2021/12/12 12:18:35;;;;;;;11.85;5.47;;;27.00;99.90;;;;;;5044755;28;20198;-64
2021/12/12 12:21:16;;;;;;;8.40;4.55;;;27.00;99.90;;;;;;5051617;28;20032;-63
2021/12/12 12:26:51;;;;;;;23.52;18.27;;;27.10;99.90;;;;;;5058748;28;20111;-65
2021/12/12 12:29:35;;;;;;;11.00;7.68;;;27.10;99.90;;;;;;5059127;28;20037;-64
2021/12/12 12:32:24;;;;;;;18.60;13.63;;;27.20;99.90;;;;;;5064509;28;20078;-64
2021/12/12 12:35:10;;;;;;;36.47;22.95;;;27.20;99.90;;;;;;5039100;28;20021;-64
2021/12/12 12:38:00;;;;;;;39.50;26.73;;;27.30;99.90;;;;;;5053435;28;20022;-64
2021/12/12 12:40:47;;;;;;;29.98;19.95;;;27.30;99.90;;;;;;5065273;28;20389;-64
2021/12/12 12:43:37;;;;;;;24.95;15.82;;;27.30;99.90;;;;;;5057718;28;20416;-65
2021/12/12 12:46:27;;;;;;;378.55;246.63;;;27.40;99.90;;;;;;5059260;28;20112;-66
2021/12/12 12:49:08;;;;;;;27.60;18.50;;;27.40;99.90;;;;;;5039895;28;20484;-65
2021/12/12 12:52:04;;;;;;;16.55;8.18;;;27.40;99.90;;;;;;5058512;28;20032;-66
2021/12/12 12:54:43;;;;;;;12.93;6.53;;;27.50;99.90;;;;;;5058919;28;20656;-64
2021/12/12 12:57:27;;;;;;;10.82;5.90;;;27.40;99.90;;;;;;5061775;28;20040;-66
2021/12/12 13:00:06;;;;;;;15.93;6.25;;;27.50;99.90;;;;;;5051411;28;20086;-66
2021/12/12 13:02:47;;;;;;;12.45;6.55;;;27.50;99.90;;;;;;5038800;28;20068;-65
2021/12/12 13:05:37;;;;;;;24.63;17.15;;;27.60;99.90;;;;;;5048361;28;20037;-64
2021/12/12 13:08:27;;;;;;;17.80;7.20;;;27.60;99.90;;;;;;5040900;28;20398;-64
2021/12/12 13:10:58;;;;;;;31.70;15.73;;;27.60;99.90;;;;;;5031074;28;20359;-65
2021/12/12 13:13:31;;;;;;;14.50;8.55;;;27.60;99.90;;;;;;5037382;28;20368;-65
2021/12/12 13:16:05;;;;;;;12.52;8.38;;;27.60;99.90;;;;;;5033422;28;20043;-65
2021/12/12 13:18:48;;;;;;;21.40;12.82;;;27.60;99.90;;;;;;5026865;28;20088;-65
2021/12/12 13:21:26;;;;;;;64.28;49.22;;;27.60;99.90;;;;;;5047500;28;20029;-64
2021/12/12 13:24:05;;;;;;;109.38;64.00;;;27.60;99.90;;;;;;5039987;28;20486;-65
2021/12/12 13:27:04;;;;;;;28.65;18.15;;;27.60;99.90;;;;;;5041871;28;20033;-64
2021/12/12 13:29:46;;;;;;;31.60;19.90;;;27.60;99.90;;;;;;5035106;28;20550;-64
2021/12/12 13:32:27;;;;;;;37.00;18.65;;;27.60;99.90;;;;;;5019837;28;20033;-63
2021/12/12 13:35:01;;;;;;;24.23;12.52;;;27.60;99.90;;;;;;5021114;28;20513;-64
2021/12/12 13:37:38;;;;;;;70.05;43.25;;;27.60;99.90;;;;;;5035690;28;20029;-64
2021/12/12 13:40:40;;;;;;;56.22;45.13;;;27.70;99.90;;;;;;5034963;28;20040;-64
2021/12/12 13:43:25;;;;;;;20.13;11.50;;;27.70;99.90;;;;;;5027517;28;20029;-63
2021/12/12 13:46:06;;;;;;;38.80;21.08;;;27.70;99.90;;;;;;5044036;28;20033;-64
2021/12/12 13:48:48;;;;;;;33.08;18.45;;;27.70;99.90;;;;;;5035468;28;20544;-64
2021/12/12 13:51:26;;;;;;;27.23;13.75;;;27.60;99.90;;;;;;5036144;28;20034;-65
2021/12/12 13:54:21;;;;;;;61.30;37.95;;;27.50;99.90;;;;;;5048011;28;20025;-64
2021/12/12 13:57:09;;;;;;;22.60;10.77;;;27.50;99.90;;;;;;5029227;28;20057;-65
2021/12/12 13:59:48;;;;;;;23.55;12.68;;;27.30;99.90;;;;;;5035085;28;20029;-65
2021/12/12 14:02:17;;;;;;;52.58;33.17;;;27.30;99.90;;;;;;5034749;28;20382;-64
2021/12/12 14:05:02;;;;;;;50.83;39.55;;;27.30;99.90;;;;;;5038544;28;20277;-65
2021/12/12 14:07:45;;;;;;;59.65;45.30;;;27.20;99.90;;;;;;5041480;28;20060;-64
2021/12/12 14:10:21;;;;;;;82.65;62.55;;;27.30;99.90;;;;;;5018459;23;20181;-65
2021/12/12 14:12:51;;;;;;;59.28;40.90;;;27.30;99.90;;;;;;5014953;28;20446;-64
2021/12/12 14:15:24;;;;;;;95.75;61.00;;;27.40;99.90;;;;;;5014932;28;20394;-66
2021/12/12 14:18:00;;;;;;;74.25;45.03;;;27.50;99.90;;;;;;5014434;28;20386;-65
2021/12/12 14:20:32;;;;;;;30.33;17.63;;;27.60;99.90;;;;;;5013464;28;20022;-64
2021/12/12 14:23:00;;;;;;;23.55;16.77;;;27.50;99.90;;;;;;5013106;28;20076;-65
2021/12/12 14:25:29;;;;;;;32.67;19.70;;;27.40;99.90;;;;;;5012733;28;20097;-63
2021/12/12 14:27:58;;;;;;;26.73;18.42;;;27.50;99.90;;;;;;5022504;28;20033;-65
2021/12/12 14:30:32;;;;;;;37.05;18.90;;;27.50;99.90;;;;;;5014498;28;20106;-64
2021/12/12 14:33:10;;;;;;;35.22;18.92;;;27.50;99.90;;;;;;5013914;28;20461;-64
2021/12/12 14:35:46;;;;;;;31.52;18.17;;;27.50;99.90;;;;;;5013808;28;20475;-65
2021/12/12 14:38:14;;;;;;;30.52;18.38;;;27.60;99.90;;;;;;5022742;28;20088;-65
2021/12/12 14:40:48;;;;;;;38.85;20.08;;;27.50;99.90;;;;;;5016715;28;20068;-64
2021/12/12 14:43:19;;;;;;;36.17;19.33;;;27.40;99.90;;;;;;5026924;28;20440;-64
2021/12/12 14:46:01;;;;;;;42.05;18.35;;;27.50;99.90;;;;;;5021793;28;20029;-64
2021/12/12 14:48:34;;;;;;;33.33;17.35;;;27.50;99.90;;;;;;5016395;28;20034;-65
2021/12/12 14:51:07;;;;;;;33.08;18.35;;;27.50;99.90;;;;;;5014061;28;20432;-65
2021/12/12 14:53:43;;;;;;;31.95;17.98;;;27.50;99.90;;;;;;5024882;28;20025;-65